Allen, Alabama
Current Conditions -  °F | °C
As of 4:53 PM on Saturday 25 Oct 2014 (Local Time) from KGZH Reporting Station
Clear Clear  
Wind Chill: 78°   Ceiling: Unl
Heat Index: 79°   Visibility: 10mi
Dew Point: 49°   Wind: 9mph
Humidity: 36%   Direction: 350°N
Pressure: 30.05"   Gusts: NA
Location:  31.6°N, 87.71°W
Report Text: KGZH 252153Z AUTO 35008KT 10SM CLR 26/09 A3005 RMK AO2 SLP172 T02560094
Loading
Personal Weather Stations






























Interactive Weather Map New forecast layout! Learn more

10-Day Weather Forecast

Advertisements
Track Severe Weather on mobile